Edwardsville, Pennsylvania
Current Conditions -  °F | °C
As of 2:54 PM on Friday 21 Nov 2014 (Local Time) from KAVP Reporting Station
Scattered Clouds Scattered Clouds  
Wind Chill: 23°   Ceiling: Unl
Heat Index: 33°   Visibility: 10mi
Dew Point:   Wind: 14mph
Humidity: 34%   Direction: 320°NW
Pressure: 30.34"   Gusts: 23mph
Location:  41.2768°N, 75.8997°W
Report Text: KAVP 211954Z AUTO 32012G20KT 10SM SCT055 01/M14 A3034 RMK AO2 SLP284 T00061139
Loading
Personal Weather Stations






























Interactive Weather Map New forecast layout! Learn more

10-Day Weather Forecast

Advertisements
Track Severe Weather on mobile